createdAt,value
2022-12-18T00:00:24.636Z,101844.98
2022-12-18T00:03:16.200Z,101850.17
2022-12-18T00:05:49.467Z,101851.89
2022-12-18T00:08:22.540Z,101854.98
2022-12-18T00:10:52.664Z,101862.24
2022-12-18T00:13:21.945Z,101861.70
2022-12-18T00:15:50.505Z,101865.64
2022-12-18T00:18:20.664Z,101864.56
2022-12-18T00:20:49.491Z,101866.74
2022-12-18T00:23:18.085Z,101869.30
2022-12-18T00:25:50.125Z,101873.95
2022-12-18T00:28:18.733Z,101874.44
2022-12-18T00:30:51.783Z,101876.48
2022-12-18T00:33:20.370Z,101877.48
2022-12-18T00:35:48.850Z,101876.09
2022-12-18T00:38:17.433Z,101877.30
2022-12-18T00:40:46.742Z,101881.79
2022-12-18T00:43:17.588Z,101887.29
2022-12-18T00:45:46.880Z,101894.38
2022-12-18T00:48:15.875Z,101894.17
2022-12-18T00:50:44.895Z,101901.05
2022-12-18T00:53:14.206Z,101903.44
2022-12-18T00:55:46.982Z,101905.16
2022-12-18T00:58:17.496Z,101904.48
2022-12-18T01:00:48.339Z,101903.80
2022-12-18T01:03:17.618Z,101907.09
2022-12-18T01:05:46.611Z,101912.45
2022-12-18T01:08:15.128Z,101915.73
2022-12-18T01:10:48.328Z,101914.66
2022-12-18T01:13:16.963Z,101921.05
2022-12-18T01:15:50.951Z,101926.25
2022-12-18T01:18:19.557Z,101933.16
2022-12-18T01:20:48.355Z,101938.02
2022-12-18T01:23:16.931Z,101937.13
2022-12-18T01:25:47.846Z,101934.48
2022-12-18T01:28:16.880Z,101936.52
2022-12-18T01:30:48.445Z,101936.49
2022-12-18T01:33:17.240Z,101941.30
2022-12-18T01:35:48.591Z,101943.86
2022-12-18T01:38:18.267Z,101947.02
2022-12-18T01:40:47.614Z,101949.81
2022-12-18T01:43:16.249Z,101954.52
2022-12-18T01:45:47.136Z,101950.38
2022-12-18T01:48:15.749Z,101950.92
2022-12-18T01:50:47.649Z,101958.21
2022-12-18T01:53:22.333Z,101963.94
2022-12-18T01:55:57.806Z,101964.27
2022-12-18T01:58:34.036Z,101967.39
2022-12-18T02:01:02.795Z,101974.33
2022-12-18T02:03:34.889Z,101978.84
2022-12-18T02:06:19.072Z,101988.55
2022-12-18T02:09:00.069Z,101989.09
2022-12-18T02:11:40.869Z,101990.33
2022-12-18T02:14:19.364Z,101993.63
2022-12-18T02:16:59.348Z,102003.32
2022-12-18T02:19:48.726Z,102006.25
2022-12-18T02:22:22.251Z,102009.89
2022-12-18T02:25:01.580Z,102011.77
2022-12-18T02:27:33.255Z,102016.48
2022-12-18T02:30:04.460Z,102024.10
2022-12-18T02:32:39.305Z,102021.36
2022-12-18T02:35:14.577Z,102027.94
2022-12-18T02:37:47.348Z,102030.17
2022-12-18T02:40:20.845Z,102031.17
2022-12-18T02:42:49.776Z,102039.66
2022-12-18T02:45:20.043Z,102042.05
2022-12-18T02:47:52.960Z,102039.46
2022-12-18T02:50:31.410Z,102038.97
2022-12-18T02:53:11.083Z,102043.32
2022-12-18T02:55:59.559Z,102046.42
2022-12-18T02:58:35.347Z,102051.09
2022-12-18T03:01:14.888Z,102055.73
2022-12-18T03:03:49.900Z,102063.83
2022-12-18T03:06:25.029Z,102070.41
2022-12-18T03:09:01.456Z,102070.77
2022-12-18T03:11:52.669Z,102076.65
2022-12-18T03:14:24.994Z,102079.08
2022-12-18T03:17:00.618Z,102082.02
2022-12-18T03:19:33.016Z,102084.30
2022-12-18T03:22:05.993Z,102090.37
2022-12-18T03:24:43.168Z,102091.92
2022-12-18T03:27:18.411Z,102097.12
2022-12-18T03:29:52.784Z,102102.32
2022-12-18T03:32:29.557Z,102104.74
2022-12-18T03:35:06.006Z,102106.33
2022-12-18T03:37:38.615Z,102104.80
2022-12-18T03:40:11.661Z,102106.02
2022-12-18T03:42:47.602Z,102101.34
2022-12-18T03:45:24.271Z,102102.56
2022-12-18T03:48:03.203Z,102107.07
2022-12-18T03:50:46.512Z,102109.33
2022-12-18T03:53:25.731Z,102108.84
2022-12-18T03:55:56.225Z,102110.77
2022-12-18T03:58:30.130Z,102116.52
2022-12-18T04:01:18.813Z,102124.49
2022-12-18T04:03:50.710Z,102131.59
2022-12-18T04:06:21.961Z,102135.02
2022-12-18T04:08:51.130Z,102138.81
2022-12-18T04:11:23.027Z,102140.58
2022-12-18T04:13:56.115Z,102139.07
2022-12-18T04:16:26.174Z,102148.83
2022-12-18T04:18:56.886Z,102151.96
2022-12-18T04:21:26.582Z,102156.14
2022-12-18T04:23:55.670Z,102160.13
2022-12-18T04:26:25.116Z,102165.48
2022-12-18T04:29:14.086Z,102170.00
2022-12-18T04:31:42.737Z,102172.28
2022-12-18T04:34:12.823Z,102177.20
2022-12-18T04:36:47.733Z,102179.36
2022-12-18T04:39:16.776Z,102186.17
2022-12-18T04:41:49.867Z,102189.86
2022-12-18T04:44:18.452Z,102189.55
2022-12-18T04:46:58.402Z,102193.93
2022-12-18T04:49:27.122Z,102193.98
2022-12-18T04:51:56.510Z,102196.27
2022-12-18T04:54:26.348Z,102197.02
2022-12-18T04:56:58.935Z,102204.17
2022-12-18T04:59:30.646Z,102209.80
2022-12-18T05:02:07.661Z,102209.38
2022-12-18T05:04:39.528Z,102214.46
2022-12-18T05:07:08.482Z,102218.48
2022-12-18T05:09:37.055Z,102226.13
2022-12-18T05:12:08.965Z,102230.14
2022-12-18T05:14:37.692Z,102230.69
2022-12-18T05:17:06.352Z,102235.02
2022-12-18T05:19:35.000Z,102243.02
2022-12-18T05:22:09.430Z,102250.81
2022-12-18T05:24:39.558Z,102252.58
2022-12-18T05:27:08.929Z,102250.00
2022-12-18T05:29:37.911Z,102255.02
2022-12-18T05:32:06.706Z,102259.38
2022-12-18T05:34:35.407Z,102259.06
2022-12-18T05:37:04.468Z,102262.88
2022-12-18T05:39:33.480Z,102267.54
2022-12-18T05:42:02.184Z,102267.21
2022-12-18T05:44:30.845Z,102269.30
2022-12-18T05:47:02.561Z,102266.72
2022-12-18T05:49:31.714Z,102267.06
2022-12-18T05:52:00.674Z,102266.35
2022-12-18T05:54:29.582Z,102265.30
2022-12-18T05:56:58.378Z,102269.61
2022-12-18T05:59:28.392Z,102278.91
2022-12-18T06:01:57.531Z,102283.58
2022-12-18T06:04:28.838Z,102285.63
2022-12-18T06:06:57.626Z,102290.98
2022-12-18T06:09:26.767Z,102296.17
2022-12-18T06:11:55.609Z,102304.11
2022-12-18T06:14:24.221Z,102309.98
2022-12-18T06:16:56.051Z,102312.40
2022-12-18T06:19:27.357Z,102316.73
2022-12-18T06:21:58.167Z,102324.50
2022-12-18T06:24:31.253Z,102323.98
2022-12-18T06:27:02.810Z,102328.28
2022-12-18T06:29:31.700Z,102334.33
2022-12-18T06:32:06.944Z,102337.92
2022-12-18T06:34:39.333Z,102347.42
2022-12-18T06:37:08.492Z,102351.39
2022-12-18T06:39:37.312Z,102354.14
2022-12-18T06:42:06.581Z,102359.85
2022-12-18T06:44:35.776Z,102364.69
2022-12-18T06:47:04.577Z,102371.44
2022-12-18T06:49:33.050Z,102376.09
2022-12-18T06:52:06.432Z,102379.70
2022-12-18T06:54:35.040Z,102382.09
2022-12-18T06:57:04.356Z,102383.45
2022-12-18T06:59:32.954Z,102390.02
2022-12-18T07:02:01.719Z,102392.25
2022-12-18T07:04:33.574Z,102395.70
2022-12-18T07:07:02.203Z,102399.13
2022-12-18T07:09:33.928Z,102398.76
2022-12-18T07:12:02.561Z,102400.11
2022-12-18T07:14:36.924Z,102401.65
2022-12-18T07:17:06.515Z,102403.71
2022-12-18T07:19:36.541Z,102410.10
2022-12-18T07:22:05.295Z,102410.42
2022-12-18T07:24:36.675Z,102413.54
2022-12-18T07:27:05.428Z,102413.52
2022-12-18T07:29:36.692Z,102417.31
2022-12-18T07:32:06.102Z,102416.80
2022-12-18T07:34:38.142Z,102421.48
2022-12-18T07:37:06.856Z,102436.88
2022-12-18T07:39:40.620Z,102440.66
2022-12-18T07:42:30.282Z,102444.93
2022-12-18T07:44:59.851Z,102444.04
2022-12-18T07:47:28.953Z,102449.04
2022-12-18T07:49:58.147Z,102452.79
2022-12-18T07:52:28.017Z,102459.34
2022-12-18T07:54:56.648Z,102464.75
2022-12-18T07:57:49.549Z,102465.27
2022-12-18T08:00:16.814Z,102465.56
2022-12-18T08:02:45.709Z,102468.14
2022-12-18T08:05:14.577Z,102470.88
2022-12-18T08:07:43.447Z,102482.81
2022-12-18T08:10:14.820Z,102485.04
2022-12-18T08:12:43.877Z,102488.81
2022-12-18T08:15:13.533Z,102488.41
2022-12-18T08:17:45.282Z,102494.92
2022-12-18T08:20:15.351Z,102505.97
2022-12-18T08:22:43.881Z,102511.14
2022-12-18T08:25:15.084Z,102512.84
2022-12-18T08:27:45.872Z,102520.11
2022-12-18T08:30:15.442Z,102524.06
2022-12-18T08:32:44.684Z,102527.05
2022-12-18T08:35:18.653Z,102524.44
2022-12-18T08:37:48.508Z,102526.17
2022-12-18T08:40:19.819Z,102529.63
2022-12-18T08:43:07.897Z,102530.84
2022-12-18T08:45:36.949Z,102531.16
2022-12-18T08:48:21.872Z,102528.54
2022-12-18T08:50:57.261Z,102531.34
2022-12-18T08:53:29.234Z,102534.48
2022-12-18T08:56:01.801Z,102542.99
2022-12-18T08:58:32.927Z,102540.35
2022-12-18T09:01:09.289Z,102540.83
2022-12-18T09:03:39.640Z,102545.23
2022-12-18T09:06:16.256Z,102547.23
2022-12-18T09:08:46.093Z,102548.92
2022-12-18T09:11:32.208Z,102552.05
2022-12-18T09:14:05.762Z,102561.27
2022-12-18T09:16:47.896Z,102561.27
2022-12-18T09:19:17.348Z,102568.16
2022-12-18T09:21:48.482Z,102568.42
2022-12-18T09:24:18.738Z,102566.75
2022-12-18T09:26:57.615Z,102570.19
2022-12-18T09:29:27.129Z,102565.16
2022-12-18T09:32:00.408Z,102568.08
2022-12-18T09:34:33.525Z,102569.40
2022-12-18T09:37:02.552Z,102571.78
2022-12-18T09:39:31.386Z,102575.52
2022-12-18T09:42:00.272Z,102578.27
2022-12-18T09:44:33.842Z,102576.17
2022-12-18T09:47:12.332Z,102577.60
2022-12-18T09:49:44.908Z,102579.88
2022-12-18T09:52:22.559Z,102575.92
2022-12-18T09:55:04.494Z,102579.23
2022-12-18T09:57:44.947Z,102585.96
2022-12-18T10:00:20.272Z,102586.61
2022-12-18T10:02:51.252Z,102583.06
2022-12-18T10:05:30.004Z,102580.33
2022-12-18T10:08:07.455Z,102583.45
2022-12-18T10:10:50.653Z,102592.38
2022-12-18T10:13:32.666Z,102596.34
2022-12-18T10:16:15.702Z,102591.85
2022-12-18T10:19:05.761Z,102596.33
2022-12-18T10:21:46.720Z,102595.11
2022-12-18T10:24:23.301Z,102591.58
2022-12-18T10:27:15.059Z,102589.62
2022-12-18T10:29:50.144Z,102591.31
2022-12-18T10:32:21.388Z,102586.66
2022-12-18T10:34:56.684Z,102588.59
2022-12-18T10:37:28.956Z,102590.08
2022-12-18T10:40:22.785Z,102592.05
2022-12-18T10:43:08.184Z,102588.48
2022-12-18T10:45:58.632Z,102589.60
2022-12-18T10:48:28.877Z,102584.86
2022-12-18T10:51:10.858Z,102581.35
2022-12-18T10:53:56.068Z,102583.10
2022-12-18T10:56:31.655Z,102582.74
2022-12-18T10:59:04.671Z,102584.63
2022-12-18T11:02:00.116Z,102591.04
2022-12-18T11:04:31.881Z,102594.66
2022-12-18T11:07:03.284Z,102593.38
2022-12-18T11:09:34.331Z,102591.35
2022-12-18T11:12:15.769Z,102586.56
2022-12-18T11:14:48.546Z,102583.59
2022-12-18T11:17:26.482Z,102587.70
2022-12-18T11:19:57.172Z,102584.36
2022-12-18T11:22:28.460Z,102584.53
2022-12-18T11:25:30.759Z,102586.69
2022-12-18T11:27:54.056Z,102592.90
2022-12-18T11:30:27.188Z,102591.98
2022-12-18T11:32:59.320Z,102595.07
2022-12-18T11:35:43.516Z,102598.67
2022-12-18T11:38:24.559Z,102596.70
2022-12-18T11:41:03.211Z,102596.45
2022-12-18T11:43:38.907Z,102596.20
2022-12-18T11:46:19.808Z,102595.23
2022-12-18T11:48:50.823Z,102588.80
2022-12-18T11:51:28.107Z,102585.20
2022-12-18T11:54:13.113Z,102593.28
2022-12-18T11:56:47.043Z,102594.77
2022-12-18T11:59:32.184Z,102595.30
2022-12-18T12:02:43.145Z,102599.43
2022-12-18T12:05:25.365Z,102606.06
2022-12-18T12:07:58.960Z,102609.52
2022-12-18T12:10:42.767Z,102611.89
2022-12-18T12:13:28.201Z,102612.86
2022-12-18T12:16:16.818Z,102611.98
2022-12-18T12:19:02.409Z,102609.07
2022-12-18T12:21:41.348Z,102609.35
2022-12-18T12:24:38.901Z,102611.55
2022-12-18T12:27:16.395Z,102614.80
2022-12-18T12:29:57.212Z,102613.42
2022-12-18T12:32:50.228Z,102624.02
2022-12-18T12:36:04.166Z,102631.11
2022-12-18T12:38:38.177Z,102639.55
2022-12-18T12:41:29.704Z,102641.03
2022-12-18T12:44:02.689Z,102646.01
2022-12-18T12:46:49.293Z,102644.48
2022-12-18T12:49:22.027Z,102644.86
2022-12-18T12:51:59.935Z,102646.41
2022-12-18T12:54:29.379Z,102660.16
2022-12-18T12:57:09.167Z,102662.21
2022-12-18T12:59:52.744Z,102671.58
2022-12-18T13:02:29.450Z,102677.48
2022-12-18T13:05:07.667Z,102683.79
2022-12-18T13:07:51.065Z,102685.61
2022-12-18T13:10:33.538Z,102688.48
2022-12-18T13:13:05.344Z,102687.16
2022-12-18T13:15:46.192Z,102685.94
2022-12-18T13:18:23.468Z,102690.50
2022-12-18T13:21:04.125Z,102694.88
2022-12-18T13:23:37.827Z,102696.80
2022-12-18T13:26:31.783Z,102699.05
2022-12-18T13:29:06.532Z,102699.00
2022-12-18T13:32:20.861Z,102704.89
2022-12-18T13:35:29.198Z,102698.84
2022-12-18T13:37:58.558Z,102700.29
2022-12-18T13:41:04.820Z,102702.04
2022-12-18T13:43:43.224Z,102705.23
2022-12-18T13:46:28.174Z,102711.86
2022-12-18T13:49:01.349Z,102714.54
2022-12-18T13:51:32.779Z,102715.30
2022-12-18T13:54:03.557Z,102717.41
2022-12-18T13:56:34.760Z,102716.00
2022-12-18T13:59:15.206Z,102719.48
2022-12-18T14:01:55.131Z,102721.77
2022-12-18T14:04:29.393Z,102722.48
2022-12-18T14:07:04.169Z,102727.52
2022-12-18T14:09:41.831Z,102725.48
2022-12-18T14:12:45.062Z,102727.80
2022-12-18T14:15:34.793Z,102731.27
2022-12-18T14:18:21.507Z,102732.14
2022-12-18T14:20:53.175Z,102730.26
2022-12-18T14:23:30.756Z,102728.23
2022-12-18T14:26:05.362Z,102731.37
2022-12-18T14:28:47.708Z,102737.48
2022-12-18T14:31:22.185Z,102739.61
2022-12-18T14:33:54.787Z,102739.33
2022-12-18T14:36:28.956Z,102737.98
2022-12-18T14:39:00.376Z,102743.54
2022-12-18T14:41:30.032Z,102741.27
2022-12-18T14:44:15.266Z,102747.14
2022-12-18T14:46:50.678Z,102753.17
2022-12-18T14:49:26.107Z,102754.71
2022-12-18T14:51:57.209Z,102756.23
2022-12-18T14:54:27.798Z,102750.99
2022-12-18T14:57:25.098Z,102758.96
2022-12-18T14:59:56.912Z,102760.17
2022-12-18T15:02:27.962Z,102757.59
2022-12-18T15:05:12.984Z,102755.54
2022-12-18T15:07:44.447Z,102758.70
2022-12-18T15:10:17.246Z,102768.45
2022-12-18T15:12:48.797Z,102775.77
2022-12-18T15:15:46.600Z,102775.63
2022-12-18T15:18:18.429Z,102768.38
2022-12-18T15:20:51.816Z,102765.97
2022-12-18T15:23:24.035Z,102765.98
2022-12-18T15:25:58.883Z,102769.98
2022-12-18T15:28:37.679Z,102773.46
2022-12-18T15:31:24.125Z,102774.13
2022-12-18T15:34:18.347Z,102770.98
2022-12-18T15:36:51.105Z,102773.73
2022-12-18T15:39:22.700Z,102778.23
2022-12-18T15:42:09.909Z,102787.26
2022-12-18T15:44:39.592Z,102789.71
2022-12-18T15:47:16.549Z,102793.36
2022-12-18T15:49:56.061Z,102792.04
2022-12-18T15:52:26.438Z,102792.05
2022-12-18T15:58:12.845Z,102792.60
2022-12-18T16:00:50.675Z,102792.27
2022-12-18T16:03:22.221Z,102792.41
2022-12-18T16:05:53.361Z,102795.34
2022-12-18T16:08:23.121Z,102798.81
2022-12-18T16:10:52.199Z,102793.29
2022-12-18T16:13:22.037Z,102796.59
2022-12-18T16:15:52.345Z,102795.20
2022-12-18T16:18:22.312Z,102797.48
2022-12-18T16:20:51.695Z,102798.73
2022-12-18T16:23:22.463Z,102794.75
2022-12-18T16:25:52.817Z,102793.73
2022-12-18T16:28:21.879Z,102795.64
2022-12-18T16:30:51.840Z,102797.38
2022-12-18T16:33:21.350Z,102804.16
2022-12-18T16:35:54.190Z,102803.11
2022-12-18T16:38:22.804Z,102799.83
2022-12-18T16:41:12.974Z,102799.14
2022-12-18T16:43:42.112Z,102794.80
2022-12-18T16:46:13.784Z,102802.08
2022-12-18T16:48:52.902Z,102802.61
2022-12-18T16:51:23.781Z,102801.39
2022-12-18T16:53:52.942Z,102805.73
2022-12-18T16:56:25.106Z,102816.69
2022-12-18T16:58:55.376Z,102830.20
2022-12-18T17:01:25.270Z,102830.21
2022-12-18T17:03:58.616Z,102834.39
2022-12-18T17:06:29.242Z,102829.36
2022-12-18T17:09:04.770Z,102828.86
2022-12-18T17:11:35.560Z,102829.03
2022-12-18T17:14:08.112Z,102830.78
2022-12-18T17:16:36.861Z,102828.00
2022-12-18T17:19:12.100Z,102831.80
2022-12-18T17:21:52.360Z,102827.47
2022-12-18T17:24:34.375Z,102825.74
2022-12-18T17:27:04.615Z,102822.96
2022-12-18T17:29:34.340Z,102828.01
2022-12-18T17:32:03.982Z,102832.33
2022-12-18T17:34:32.841Z,102834.07
2022-12-18T17:37:02.695Z,102828.70
2022-12-18T17:39:31.916Z,102832.69
2022-12-18T17:42:01.680Z,102833.40
2022-12-18T17:44:31.166Z,102835.30
2022-12-18T17:47:00.451Z,102843.45
2022-12-18T17:49:31.022Z,102850.56
2022-12-18T17:51:59.768Z,102856.61
2022-12-18T17:54:28.525Z,102863.19
2022-12-18T17:56:57.713Z,102863.20
2022-12-18T17:59:28.663Z,102861.45
2022-12-18T18:01:57.889Z,102862.67
2022-12-18T18:04:27.202Z,102864.74
2022-12-18T18:06:55.771Z,102863.69
2022-12-18T18:09:26.278Z,102859.54
2022-12-18T18:12:13.206Z,102857.79
2022-12-18T18:14:42.387Z,102862.48
2022-12-18T18:17:13.783Z,102863.33
2022-12-18T18:19:43.526Z,102860.21
2022-12-18T18:22:15.629Z,102856.77
2022-12-18T18:24:47.481Z,102861.10
2022-12-18T18:27:16.481Z,102864.91
2022-12-18T18:29:45.634Z,102864.90
2022-12-18T18:32:14.512Z,102860.55
2022-12-18T18:34:45.741Z,102857.79
2022-12-18T18:37:14.628Z,102856.73
2022-12-18T18:39:43.776Z,102857.43
2022-12-18T18:42:14.665Z,102858.30
2022-12-18T18:44:48.766Z,102859.87
2022-12-18T18:47:19.072Z,102855.35
2022-12-18T18:49:50.580Z,102855.52
2022-12-18T18:52:19.364Z,102856.54
2022-12-18T18:55:11.491Z,102850.84
2022-12-18T18:57:37.899Z,102848.92
2022-12-18T19:00:09.675Z,102853.27
2022-12-18T19:02:44.106Z,102868.13
2022-12-18T19:05:13.994Z,102879.73
2022-12-18T19:07:42.897Z,102871.04
2022-12-18T19:10:14.544Z,102858.36
2022-12-18T19:13:01.636Z,102861.13
2022-12-18T19:15:31.160Z,102859.54
2022-12-18T19:18:01.119Z,102851.73
2022-12-18T19:20:36.715Z,102846.02
2022-12-18T19:23:05.925Z,102851.88
2022-12-18T19:25:42.541Z,102864.01
2022-12-18T19:28:21.864Z,102876.64
2022-12-18T19:31:01.291Z,102880.30
2022-12-18T19:33:43.031Z,102881.34
2022-12-18T19:36:19.221Z,102888.09
2022-12-18T19:38:49.176Z,102885.48
2022-12-18T19:41:29.041Z,102880.65
2022-12-18T19:43:58.604Z,102881.67
2022-12-18T19:46:29.272Z,102887.39
2022-12-18T19:49:00.727Z,102881.84
2022-12-18T19:51:31.314Z,102880.10
2022-12-18T19:54:02.056Z,102876.30
2022-12-18T19:56:33.307Z,102874.77
2022-12-18T19:59:03.314Z,102872.88
2022-12-18T20:01:32.884Z,102875.84
2022-12-18T20:04:01.916Z,102876.55
2022-12-18T20:06:33.729Z,102874.13
2022-12-18T20:09:07.645Z,102871.53
2022-12-18T20:11:36.977Z,102867.55
2022-12-18T20:14:22.673Z,102861.66
2022-12-18T20:16:54.463Z,102862.85
2022-12-18T20:19:26.794Z,102861.80
2022-12-18T20:21:56.294Z,102869.59
2022-12-18T20:24:25.257Z,102876.17
2022-12-18T20:26:55.516Z,102877.92
2022-12-18T20:29:28.502Z,102874.46
2022-12-18T20:31:57.569Z,102874.66
2022-12-18T20:34:27.102Z,102874.48
2022-12-18T20:36:56.344Z,102881.05
2022-12-18T20:39:27.048Z,102887.11
2022-12-18T20:41:56.486Z,102893.86
2022-12-18T20:44:29.292Z,102906.13
2022-12-18T20:46:59.830Z,102914.77
2022-12-18T20:49:30.702Z,102917.70
2022-12-18T20:52:01.900Z,102913.20
2022-12-18T20:54:30.743Z,102917.89
2022-12-18T20:56:59.505Z,102917.39
2022-12-18T20:59:28.556Z,102914.30
2022-12-18T21:01:57.269Z,102913.11
2022-12-18T21:04:26.502Z,102909.30
2022-12-18T21:06:59.100Z,102914.33
2022-12-18T21:09:38.460Z,102914.34
2022-12-18T21:12:35.156Z,102907.05
2022-12-18T21:15:22.843Z,102916.38
2022-12-18T21:17:57.887Z,102916.70
2022-12-18T21:20:26.828Z,102913.20
2022-12-18T21:22:56.379Z,102910.42
2022-12-18T21:25:29.041Z,102909.57
2022-12-18T21:27:57.702Z,102906.64
2022-12-18T21:30:27.217Z,102905.09
2022-12-18T21:32:56.922Z,102900.09
2022-12-18T21:35:25.577Z,102896.81
2022-12-18T21:37:57.234Z,102894.06
2022-12-18T21:40:27.748Z,102889.73
2022-12-18T21:43:18.883Z,102884.88
2022-12-18T21:45:51.417Z,102873.27
2022-12-18T21:48:23.248Z,102861.13
2022-12-18T21:50:52.240Z,102853.15
2022-12-18T21:53:20.996Z,102848.29
2022-12-18T21:55:58.491Z,102842.73
2022-12-18T21:58:27.643Z,102837.89
2022-12-18T22:00:56.402Z,102829.40
2022-12-18T22:03:25.270Z,102822.48
2022-12-18T22:06:07.622Z,102815.05
2022-12-18T22:08:43.829Z,102808.14
2022-12-18T22:11:14.988Z,102806.79
2022-12-18T22:13:45.100Z,102805.05
2022-12-18T22:16:16.636Z,102806.95
2022-12-18T22:18:45.551Z,102806.95
2022-12-18T22:21:28.985Z,102808.51
2022-12-18T22:23:59.743Z,102809.89
2022-12-18T22:26:35.028Z,102806.09
2022-12-18T22:29:25.774Z,102812.14
2022-12-18T22:32:03.740Z,102812.29
2022-12-18T22:34:36.826Z,102809.52
2022-12-18T22:37:05.755Z,102810.05
2022-12-18T22:39:34.560Z,102808.51
2022-12-18T22:42:06.168Z,102808.17
2022-12-18T22:44:34.794Z,102804.70
2022-12-18T22:47:06.353Z,102804.71
2022-12-18T22:49:38.099Z,102806.27
2022-12-18T22:52:09.090Z,102803.49
2022-12-18T22:54:38.508Z,102803.84
2022-12-18T22:57:07.055Z,102803.14
2022-12-18T22:59:36.036Z,102802.60
2022-12-18T23:02:05.106Z,102800.52
2022-12-18T23:04:39.317Z,102793.59
2022-12-18T23:07:08.021Z,102794.98
2022-12-18T23:09:37.096Z,102796.55
2022-12-18T23:12:07.361Z,102796.90
2022-12-18T23:14:36.229Z,102792.56
2022-12-18T23:17:07.451Z,102790.14
2022-12-18T23:19:37.109Z,102790.13
2022-12-18T23:22:11.804Z,102793.40
2022-12-18T23:24:40.685Z,102793.38
2022-12-18T23:27:11.425Z,102789.55
2022-12-18T23:29:40.847Z,102781.25
2022-12-18T23:32:09.299Z,102781.94
2022-12-18T23:34:41.162Z,102781.80
2022-12-18T23:37:24.963Z,102779.53
2022-12-18T23:40:05.323Z,102783.52
2022-12-18T23:42:33.852Z,102783.70
2022-12-18T23:45:03.917Z,102783.52
2022-12-18T23:47:38.388Z,102781.06
2022-12-18T23:50:08.871Z,102782.09
2022-12-18T23:52:37.514Z,102783.29
2022-12-18T23:55:10.302Z,102781.70
2022-12-18T23:57:39.484Z,102779.95
